Time,TemperatureF,DewpointF,PressureIn,WindDirection,WindDirectionDegrees,WindSpeedMPH,WindSpeedGustMPH,Humidity,HourlyPrecipIn,Conditions,Clouds,dailyrainin,SolarRadiationWatts/m^2,SoftwareType,DateUTC
2013-09-13 00:04:00,64.0,64.0,-100.00,SSE,148,1.0,2.0,99,0.00,,,0.15,0.000000,,2013-09-13 04:04:00,
2013-09-13 00:11:00,63.0,63.0,-100.00,SE,131,0.0,2.0,99,0.00,,,0.15,0.000000,,2013-09-13 04:11:00,
2013-09-13 00:44:00,63.0,63.0,-100.00,SE,131,0.0,2.0,99,0.00,,,0.15,0.000000,,2013-09-13 04:44:00,
2013-09-13 00:54:00,63.0,63.0,-100.00,SE,131,0.0,2.0,99,0.00,,,0.15,0.000000,,2013-09-13 04:54:00,
2013-09-13 01:03:00,63.0,63.0,-100.00,SE,131,0.0,2.0,99,0.00,,,0.15,0.000000,,2013-09-13 05:03:00,
2013-09-13 01:11:00,62.0,61.0,-100.00,WNW,302,1.0,4.0,98,0.00,,,0.15,0.000000,,2013-09-13 05:11:00,
2013-09-13 01:43:00,62.0,61.0,-100.00,WNW,302,1.0,4.0,98,0.00,,,0.15,0.000000,,2013-09-13 05:43:00,
2013-09-13 01:53:00,62.0,61.0,-100.00,WNW,302,1.0,4.0,98,0.00,,,0.15,0.000000,,2013-09-13 05:53:00,
2013-09-13 02:02:00,62.0,61.0,-100.00,WNW,302,1.0,4.0,98,0.00,,,0.15,0.000000,,2013-09-13 06:02:00,
2013-09-13 02:11:00,62.0,62.0,-100.00,ESE,118,1.0,4.0,99,0.00,,,0.15,0.000000,,2013-09-13 06:11:00,
2013-09-13 02:42:00,62.0,62.0,-100.00,ESE,118,1.0,4.0,99,0.00,,,0.15,0.000000,,2013-09-13 06:42:00,
2013-09-13 02:52:00,62.0,62.0,-100.00,ESE,118,1.0,4.0,99,0.00,,,0.15,0.000000,,2013-09-13 06:52:00,
2013-09-13 03:02:00,62.0,62.0,-100.00,ESE,118,1.0,4.0,99,0.00,,,0.15,0.000000,,2013-09-13 07:02:00,
2013-09-13 03:11:00,62.0,62.0,-100.00,ESE,122,1.0,6.0,99,0.00,,,0.15,0.000000,,2013-09-13 07:11:00,
2013-09-13 03:43:00,62.0,62.0,-100.00,ESE,122,1.0,6.0,99,0.00,,,0.15,0.000000,,2013-09-13 07:43:00,
2013-09-13 03:53:00,62.0,62.0,-100.00,ESE,122,1.0,6.0,99,0.00,,,0.15,0.000000,,2013-09-13 07:53:00,
2013-09-13 04:02:00,62.0,62.0,-100.00,ESE,122,1.0,6.0,99,0.00,,,0.15,0.000000,,2013-09-13 08:02:00,
2013-09-13 04:11:00,61.0,61.0,-100.00,SSE,163,0.0,3.0,99,0.00,,,0.15,0.000000,,2013-09-13 08:11:00,
2013-09-13 04:42:00,61.0,61.0,-100.00,SSE,163,0.0,3.0,99,0.00,,,0.15,0.000000,,2013-09-13 08:42:00,
2013-09-13 04:52:00,61.0,61.0,-100.00,SSE,163,0.0,3.0,99,0.00,,,0.15,0.000000,,2013-09-13 08:52:00,
2013-09-13 05:02:00,61.0,61.0,-100.00,SSE,163,0.0,3.0,99,0.00,,,0.15,0.000000,,2013-09-13 09:02:00,
2013-09-13 05:11:00,61.0,61.0,-100.00,SE,141,1.0,1.0,99,0.00,,,0.15,0.000000,,2013-09-13 09:11:00,
2013-09-13 05:43:00,61.0,61.0,-100.00,SE,141,1.0,1.0,99,0.00,,,0.15,0.000000,,2013-09-13 09:43:00,
2013-09-13 05:54:00,61.0,61.0,-100.00,SE,141,1.0,1.0,99,0.00,,,0.15,0.000000,,2013-09-13 09:54:00,
2013-09-13 06:03:00,61.0,61.0,-100.00,SE,141,1.0,1.0,99,0.00,,,0.15,0.000000,,2013-09-13 10:03:00,
2013-09-13 06:11:00,61.0,61.0,-100.00,ESE,119,1.0,4.0,99,0.00,,,0.15,0.000000,,2013-09-13 10:11:00,
2013-09-13 06:42:00,61.0,61.0,-100.00,ESE,119,1.0,4.0,99,0.00,,,0.15,0.000000,,2013-09-13 10:42:00,
2013-09-13 06:53:00,61.0,61.0,-100.00,ESE,119,1.0,4.0,99,0.00,,,0.15,0.000000,,2013-09-13 10:53:00,
2013-09-13 07:03:00,61.0,61.0,-100.00,ESE,119,1.0,4.0,99,0.00,,,0.15,0.000000,,2013-09-13 11:03:00,
2013-09-13 07:11:00,60.0,60.0,-100.00,ESE,111,1.0,2.0,99,0.00,,,0.15,0.000000,,2013-09-13 11:11:00,
2013-09-13 07:43:00,60.0,60.0,-100.00,ESE,111,1.0,2.0,99,0.00,,,0.15,0.000000,,2013-09-13 11:43:00,
2013-09-13 07:52:00,60.0,60.0,-100.00,ESE,111,1.0,2.0,99,0.00,,,0.15,0.000000,,2013-09-13 11:52:00,
2013-09-13 08:02:00,60.0,60.0,-100.00,ESE,111,1.0,2.0,99,0.00,,,0.15,0.000000,,2013-09-13 12:02:00,
2013-09-13 08:11:00,61.0,61.0,-100.00,ESE,112,2.0,7.0,99,0.00,,,0.15,57.000000,,2013-09-13 12:11:00,
2013-09-13 08:42:00,61.0,61.0,-100.00,ESE,112,2.0,7.0,99,0.00,,,0.15,57.000000,,2013-09-13 12:42:00,
2013-09-13 08:52:00,61.0,61.0,-100.00,ESE,112,2.0,7.0,99,0.00,,,0.15,57.000000,,2013-09-13 12:52:00,
2013-09-13 09:02:00,61.0,61.0,-100.00,ESE,112,2.0,7.0,99,0.00,,,0.15,57.000000,,2013-09-13 13:02:00,
2013-09-13 09:11:00,61.0,58.0,-100.00,ESE,105,3.0,8.0,90,0.00,,,0.14,161.000000,,2013-09-13 13:11:00,
2013-09-13 09:42:00,61.0,58.0,-100.00,ESE,105,3.0,8.0,90,0.00,,,0.14,161.000000,,2013-09-13 13:42:00,
2013-09-13 09:52:00,61.0,58.0,-100.00,ESE,105,3.0,8.0,90,0.00,,,0.14,161.000000,,2013-09-13 13:52:00,
2013-09-13 10:02:00,61.0,58.0,-100.00,ESE,105,3.0,8.0,90,0.00,,,0.14,161.000000,,2013-09-13 14:02:00,
2013-09-13 10:11:00,64.0,59.0,-100.00,ESE,110,3.0,7.0,83,0.00,,,0.14,325.000000,,2013-09-13 14:11:00,
2013-09-13 10:42:00,64.0,59.0,-100.00,ESE,110,3.0,7.0,83,0.00,,,0.14,325.000000,,2013-09-13 14:42:00,
2013-09-13 10:52:00,64.0,59.0,-100.00,ESE,110,3.0,7.0,83,0.00,,,0.14,325.000000,,2013-09-13 14:52:00,
2013-09-13 11:02:00,64.0,59.0,-100.00,ESE,110,3.0,7.0,83,0.00,,,0.14,325.000000,,2013-09-13 15:02:00,
2013-09-13 11:11:00,67.0,56.0,-100.00,ESE,112,3.0,8.0,68,0.00,,,0.14,598.000000,,2013-09-13 15:11:00,
2013-09-13 11:44:00,67.0,56.0,-100.00,ESE,112,3.0,8.0,68,0.00,,,0.14,598.000000,,2013-09-13 15:44:00,
2013-09-13 11:54:00,67.0,56.0,-100.00,ESE,112,3.0,8.0,68,0.00,,,0.14,598.000000,,2013-09-13 15:54:00,
2013-09-13 12:04:00,67.0,56.0,-100.00,ESE,112,3.0,8.0,68,0.00,,,0.14,598.000000,,2013-09-13 16:04:00,
2013-09-13 12:11:00,68.0,56.0,-100.00,SE,133,3.0,7.0,65,0.00,,,0.14,779.000000,,2013-09-13 16:11:00,
2013-09-13 12:43:00,68.0,56.0,-100.00,SE,133,3.0,7.0,65,0.00,,,0.14,779.000000,,2013-09-13 16:43:00,
2013-09-13 12:54:00,68.0,56.0,-100.00,SE,133,3.0,7.0,65,0.00,,,0.14,779.000000,,2013-09-13 16:54:00,
2013-09-13 13:04:00,68.0,56.0,-100.00,SE,133,3.0,7.0,65,0.00,,,0.14,779.000000,,2013-09-13 17:04:00,
2013-09-13 13:11:00,69.0,54.0,-100.00,SE,130,3.0,8.0,58,0.00,,,0.14,931.000000,,2013-09-13 17:11:00,
2013-09-13 13:44:00,69.0,54.0,-100.00,SE,130,3.0,8.0,58,0.00,,,0.14,931.000000,,2013-09-13 17:44:00,
2013-09-13 13:53:00,69.0,54.0,-100.00,SE,130,3.0,8.0,58,0.00,,,0.14,931.000000,,2013-09-13 17:53:00,
2013-09-13 14:02:00,69.0,54.0,-100.00,SE,130,3.0,8.0,58,0.00,,,0.14,931.000000,,2013-09-13 18:02:00,
2013-09-13 14:11:00,70.0,52.0,-100.00,ESE,121,3.0,8.0,53,0.00,,,0.14,914.000000,,2013-09-13 18:11:00,
2013-09-13 14:42:00,70.0,52.0,-100.00,ESE,121,3.0,8.0,53,0.00,,,0.14,914.000000,,2013-09-13 18:42:00,
2013-09-13 14:52:00,70.0,52.0,-100.00,ESE,121,3.0,8.0,53,0.00,,,0.14,914.000000,,2013-09-13 18:52:00,
2013-09-13 15:02:00,70.0,52.0,-100.00,ESE,121,3.0,8.0,53,0.00,,,0.14,914.000000,,2013-09-13 19:02:00,
2013-09-13 15:11:00,69.0,49.0,-100.00,SE,128,4.0,7.0,49,0.00,,,0.14,924.000000,,2013-09-13 19:11:00,
2013-09-13 15:43:00,69.0,49.0,-100.00,SE,128,4.0,7.0,49,0.00,,,0.14,924.000000,,2013-09-13 19:43:00,
2013-09-13 15:52:00,69.0,49.0,-100.00,SE,128,4.0,7.0,49,0.00,,,0.14,924.000000,,2013-09-13 19:52:00,
2013-09-13 16:02:00,69.0,49.0,-100.00,SE,128,4.0,7.0,49,0.00,,,0.14,924.000000,,2013-09-13 20:02:00,
2013-09-13 16:11:00,68.0,50.0,-100.00,SE,129,3.0,8.0,52,0.00,,,0.14,701.000000,,2013-09-13 20:11:00,
2013-09-13 16:43:00,68.0,50.0,-100.00,SE,129,3.0,8.0,52,0.00,,,0.14,701.000000,,2013-09-13 20:43:00,
2013-09-13 16:52:00,68.0,50.0,-100.00,SE,129,3.0,8.0,52,0.00,,,0.14,701.000000,,2013-09-13 20:52:00,
2013-09-13 17:02:00,68.0,50.0,-100.00,SE,129,3.0,8.0,52,0.00,,,0.14,701.000000,,2013-09-13 21:02:00,
2013-09-13 17:11:00,67.0,46.0,-100.00,ESE,108,4.0,8.0,47,0.00,,,0.14,680.000000,,2013-09-13 21:11:00,
2013-09-13 17:44:00,67.0,46.0,-100.00,ESE,108,4.0,8.0,47,0.00,,,0.14,680.000000,,2013-09-13 21:44:00,
2013-09-13 17:54:00,67.0,46.0,-100.00,ESE,108,4.0,8.0,47,0.00,,,0.14,680.000000,,2013-09-13 21:54:00,
2013-09-13 18:04:00,67.0,46.0,-100.00,ESE,108,4.0,8.0,47,0.00,,,0.14,680.000000,,2013-09-13 22:04:00,
2013-09-13 18:11:00,61.0,45.0,-100.00,ESE,108,3.0,8.0,55,0.00,,,0.14,135.000000,,2013-09-13 22:11:00,
2013-09-13 18:43:00,61.0,45.0,-100.00,ESE,108,3.0,8.0,55,0.00,,,0.14,135.000000,,2013-09-13 22:43:00,
2013-09-13 18:54:00,61.0,45.0,-100.00,ESE,108,3.0,8.0,55,0.00,,,0.14,135.000000,,2013-09-13 22:54:00,
2013-09-13 19:03:00,61.0,45.0,-100.00,ESE,108,3.0,8.0,55,0.00,,,0.14,135.000000,,2013-09-13 23:03:00,
2013-09-13 19:11:00,59.0,46.0,-100.00,ESE,112,3.0,9.0,62,0.00,,,0.05,28.000000,,2013-09-13 23:11:00,
2013-09-13 19:43:00,59.0,46.0,-100.00,ESE,112,3.0,9.0,62,0.00,,,0.05,28.000000,,2013-09-13 23:43:00,
2013-09-13 19:53:00,59.0,46.0,-100.00,ESE,112,3.0,9.0,62,0.00,,,0.05,28.000000,,2013-09-13 23:53:00,
2013-09-13 20:01:00,59.0,46.0,-100.00,ESE,112,3.0,9.0,62,0.00,,,0.05,28.000000,,2013-09-14 00:01:00,
2013-09-13 20:11:00,56.0,47.0,-100.00,SE,142,3.0,6.0,72,0.00,,,0.05,6.000000,,2013-09-14 00:11:00,
2013-09-13 20:42:00,56.0,47.0,-100.00,SE,142,3.0,6.0,72,0.00,,,0.05,6.000000,,2013-09-14 00:42:00,
2013-09-13 20:53:00,56.0,47.0,-100.00,SE,142,3.0,6.0,72,0.00,,,0.05,6.000000,,2013-09-14 00:53:00,
2013-09-13 21:02:00,56.0,47.0,-100.00,SE,142,3.0,6.0,72,0.00,,,0.05,6.000000,,2013-09-14 01:02:00,
2013-09-13 21:11:00,56.0,48.0,-100.00,SE,140,3.0,6.0,75,0.00,,,0.01,0.000000,,2013-09-14 01:11:00,
2013-09-13 21:42:00,56.0,48.0,-100.00,SE,140,3.0,6.0,75,0.00,,,0.01,0.000000,,2013-09-14 01:42:00,
2013-09-13 21:52:00,56.0,48.0,-100.00,SE,140,3.0,6.0,75,0.00,,,0.01,0.000000,,2013-09-14 01:52:00,
2013-09-13 22:02:00,56.0,48.0,-100.00,SE,140,3.0,6.0,75,0.00,,,0.01,0.000000,,2013-09-14 02:02:00,
2013-09-13 22:11:00,54.0,48.0,-100.00,SE,145,5.0,9.0,79,0.00,,,0.00,0.000000,,2013-09-14 02:11:00,
2013-09-13 22:42:00,54.0,48.0,-100.00,SE,145,5.0,9.0,79,0.00,,,0.00,0.000000,,2013-09-14 02:42:00,
2013-09-13 22:52:00,54.0,48.0,-100.00,SE,145,5.0,9.0,79,0.00,,,0.00,0.000000,,2013-09-14 02:52:00,
2013-09-13 23:02:00,54.0,48.0,-100.00,SE,145,5.0,9.0,79,0.00,,,0.00,0.000000,,2013-09-14 03:02:00,
2013-09-13 23:11:00,53.0,46.0,-100.00,SSE,148,3.0,8.0,77,0.00,,,0.00,0.000000,,2013-09-14 03:11:00,
2013-09-13 23:45:00,53.0,46.0,-100.00,SSE,148,3.0,8.0,77,0.00,,,0.00,0.000000,,2013-09-14 03:45:00,
2013-09-13 23:55:00,53.0,46.0,-100.00,SSE,148,3.0,8.0,77,0.00,,,0.00,0.000000,,2013-09-14 03:55:00,